Flight Training


We provide structured training required to obtain a pilots certificate ranging from a Private Pilot up to ATP flying for the major airlines.

If your desire to fly is for personal pleasure the first step is to find a professional FAA licensed flight instructor to begin your journey.

The one-hour introductory flight with an instructor lasts one hour and features a log book and a six-month subscription to Flight Training magazine. After flying you to the training area, your instructor will let you test the controls. Call us now

 

Aviation Weather

Available data for KLDJ from the past 2 hours
LINDEN, NJ
Metar
KLDJ 200235Z AUTO 00000KT 10SM OVC039 07/00 A2988 RMK AO2 T00671002

02:35 UTC

Wind: 0° 0kt

Visibility: 10 SM

Sky: OVC 3900 ft

Temp: 7 deg C / 44.6 deg F

Dewpoint: 0 deg C / 32 deg F

Pressure: 29.88 inHg

Pireps (2)
EWR UA /OV 10 SOUTH/TM 0205/FL035/TP E170/SK BKN 035
EWR UA /OV BWZ320005/TM 0121/FL070/TP B738/SK BKN TOPS / 50/WX VMC/TB SMOOTH

Available data for KEWR from the past hour
NEWARK, NJ
TAF
KEWR 192332Z 2000/2106 34006KT P6SM SCT035 BKN160 TEMPO 2004/2008 BKN027 FM200900 34007KT P6SM SCT028 BKN050 FM201800 33010G18KT P6SM SCT040 BKN070 FM202200 32010G22KT P6SM SCT070 FM210400 32010KT P6SM SCT070
Pirep (1)
EWR UA /OV 10 SOUTH/TM 0205/FL035/TP E170/SK BKN 035

Our planes

Some of our students